sensor_id;sensor_type;location;lat;lon;timestamp;P1;durP1;ratioP1;P2;durP2;ratioP2
77040;SDS011;65974;42.664;23.264;2023-04-29T00:00:19;4.90;;;4.05;;
77040;SDS011;65974;42.664;23.264;2023-04-29T00:02:45;5.95;;;4.53;;
77040;SDS011;65974;42.664;23.264;2023-04-29T00:05:10;9.57;;;6.60;;
77040;SDS011;65974;42.664;23.264;2023-04-29T00:07:36;8.73;;;4.82;;
77040;SDS011;65974;42.664;23.264;2023-04-29T00:10:02;4.80;;;4.07;;
77040;SDS011;65974;42.664;23.264;2023-04-29T00:12:27;5.93;;;4.60;;
77040;SDS011;65974;42.664;23.264;2023-04-29T00:14:54;7.25;;;4.18;;
77040;SDS011;65974;42.664;23.264;2023-04-29T00:17:20;8.52;;;4.20;;
77040;SDS011;65974;42.664;23.264;2023-04-29T00:19:45;10.75;;;5.25;;
77040;SDS011;65974;42.664;23.264;2023-04-29T00:22:12;8.43;;;6.38;;
77040;SDS011;65974;42.664;23.264;2023-04-29T00:24:38;5.65;;;4.28;;
77040;SDS011;65974;42.664;23.264;2023-04-29T00:27:03;4.15;;;3.65;;
77040;SDS011;65974;42.664;23.264;2023-04-29T00:29:29;6.57;;;3.45;;
77040;SDS011;65974;42.664;23.264;2023-04-29T00:31:55;6.55;;;5.63;;
77040;SDS011;65974;42.664;23.264;2023-04-29T00:34:20;6.22;;;5.63;;
77040;SDS011;65974;42.664;23.264;2023-04-29T00:36:46;10.55;;;5.32;;
77040;SDS011;65974;42.664;23.264;2023-04-29T00:39:12;9.60;;;5.78;;
77040;SDS011;65974;42.664;23.264;2023-04-29T00:41:37;9.05;;;7.13;;
77040;SDS011;65974;42.664;23.264;2023-04-29T00:44:03;15.23;;;8.23;;
77040;SDS011;65974;42.664;23.264;2023-04-29T00:46:28;9.30;;;6.68;;
77040;SDS011;65974;42.664;23.264;2023-04-29T00:48:54;9.52;;;6.88;;
77040;SDS011;65974;42.664;23.264;2023-04-29T00:51:20;8.00;;;5.97;;
77040;SDS011;65974;42.664;23.264;2023-04-29T00:53:46;9.10;;;6.95;;
77040;SDS011;65974;42.664;23.264;2023-04-29T00:56:12;10.77;;;6.50;;
77040;SDS011;65974;42.664;23.264;2023-04-29T00:58:39;10.13;;;5.15;;
77040;SDS011;65974;42.664;23.264;2023-04-29T01:01:05;6.53;;;4.03;;
77040;SDS011;65974;42.664;23.264;2023-04-29T01:03:31;7.57;;;5.45;;
77040;SDS011;65974;42.664;23.264;2023-04-29T01:11:51;5.47;;;3.03;;
77040;SDS011;65974;42.664;23.264;2023-04-29T01:14:31;6.35;;;4.28;;
77040;SDS011;65974;42.664;23.264;2023-04-29T01:16:58;3.83;;;2.88;;
77040;SDS011;65974;42.664;23.264;2023-04-29T01:22:05;5.10;;;3.35;;
77040;SDS011;65974;42.664;23.264;2023-04-29T01:24:30;10.05;;;4.80;;
77040;SDS011;65974;42.664;23.264;2023-04-29T01:26:58;8.93;;;4.30;;
77040;SDS011;65974;42.664;23.264;2023-04-29T01:32:04;4.07;;;3.42;;
77040;SDS011;65974;42.664;23.264;2023-04-29T01:35:08;7.60;;;5.20;;
77040;SDS011;65974;42.664;23.264;2023-04-29T01:37:36;2.83;;;2.58;;
77040;SDS011;65974;42.664;23.264;2023-04-29T01:40:11;6.45;;;3.75;;
77040;SDS011;65974;42.664;23.264;2023-04-29T01:43:03;7.50;;;5.50;;
77040;SDS011;65974;42.664;23.264;2023-04-29T01:45:35;7.78;;;4.57;;
77040;SDS011;65974;42.664;23.264;2023-04-29T01:48:05;9.45;;;5.78;;
77040;SDS011;65974;42.664;23.264;2023-04-29T01:50:32;6.28;;;5.20;;
77040;SDS011;65974;42.664;23.264;2023-04-29T01:52:57;6.82;;;6.10;;
77040;SDS011;65974;42.664;23.264;2023-04-29T01:55:23;4.82;;;3.78;;
77040;SDS011;65974;42.664;23.264;2023-04-29T01:57:51;6.13;;;4.13;;
77040;SDS011;65974;42.664;23.264;2023-04-29T02:00:17;16.00;;;7.88;;
77040;SDS011;65974;42.664;23.264;2023-04-29T02:02:42;16.85;;;10.77;;
77040;SDS011;65974;42.664;23.264;2023-04-29T02:05:08;14.95;;;10.90;;
77040;SDS011;65974;42.664;23.264;2023-04-29T02:07:34;8.13;;;5.97;;
77040;SDS011;65974;42.664;23.264;2023-04-29T02:09:59;14.55;;;9.60;;
77040;SDS011;65974;42.664;23.264;2023-04-29T02:12:25;6.22;;;3.90;;
77040;SDS011;65974;42.664;23.264;2023-04-29T02:14:53;6.22;;;5.10;;
77040;SDS011;65974;42.664;23.264;2023-04-29T02:17:18;11.82;;;8.50;;
77040;SDS011;65974;42.664;23.264;2023-04-29T02:19:45;7.18;;;5.75;;
77040;SDS011;65974;42.664;23.264;2023-04-29T02:22:10;13.30;;;6.75;;
77040;SDS011;65974;42.664;23.264;2023-04-29T02:24:37;7.72;;;6.80;;
77040;SDS011;65974;42.664;23.264;2023-04-29T02:27:03;7.45;;;4.60;;
77040;SDS011;65974;42.664;23.264;2023-04-29T02:29:31;5.50;;;4.70;;
77040;SDS011;65974;42.664;23.264;2023-04-29T02:31:57;6.13;;;4.65;;
77040;SDS011;65974;42.664;23.264;2023-04-29T02:34:23;6.15;;;4.05;;
77040;SDS011;65974;42.664;23.264;2023-04-29T02:36:49;6.65;;;5.05;;
77040;SDS011;65974;42.664;23.264;2023-04-29T02:39:14;6.13;;;4.40;;
77040;SDS011;65974;42.664;23.264;2023-04-29T02:41:40;13.23;;;4.85;;
77040;SDS011;65974;42.664;23.264;2023-04-29T02:44:06;6.90;;;4.00;;
77040;SDS011;65974;42.664;23.264;2023-04-29T02:46:32;9.45;;;4.85;;
77040;SDS011;65974;42.664;23.264;2023-04-29T02:49:00;8.02;;;4.50;;
77040;SDS011;65974;42.664;23.264;2023-04-29T02:51:26;10.07;;;5.57;;
77040;SDS011;65974;42.664;23.264;2023-04-29T02:53:52;10.27;;;4.82;;
77040;SDS011;65974;42.664;23.264;2023-04-29T02:56:18;7.63;;;5.82;;
77040;SDS011;65974;42.664;23.264;2023-04-29T02:58:44;8.00;;;5.07;;
77040;SDS011;65974;42.664;23.264;2023-04-29T03:01:09;6.78;;;4.72;;
77040;SDS011;65974;42.664;23.264;2023-04-29T03:03:35;22.30;;;5.85;;
77040;SDS011;65974;42.664;23.264;2023-04-29T03:06:01;7.22;;;5.25;;
77040;SDS011;65974;42.664;23.264;2023-04-29T03:08:27;5.65;;;3.63;;
77040;SDS011;65974;42.664;23.264;2023-04-29T03:10:53;7.30;;;5.03;;
77040;SDS011;65974;42.664;23.264;2023-04-29T03:13:18;4.25;;;3.92;;
77040;SDS011;65974;42.664;23.264;2023-04-29T03:15:45;5.65;;;4.72;;
77040;SDS011;65974;42.664;23.264;2023-04-29T03:18:10;6.97;;;4.57;;
77040;SDS011;65974;42.664;23.264;2023-04-29T03:20:36;11.90;;;6.03;;
77040;SDS011;65974;42.664;23.264;2023-04-29T03:23:02;10.00;;;7.32;;
77040;SDS011;65974;42.664;23.264;2023-04-29T03:25:27;6.97;;;4.70;;
77040;SDS011;65974;42.664;23.264;2023-04-29T03:27:53;7.07;;;5.07;;
77040;SDS011;65974;42.664;23.264;2023-04-29T03:30:18;5.00;;;4.13;;
77040;SDS011;65974;42.664;23.264;2023-04-29T03:32:44;6.25;;;4.10;;
77040;SDS011;65974;42.664;23.264;2023-04-29T03:35:09;6.93;;;5.10;;
77040;SDS011;65974;42.664;23.264;2023-04-29T03:37:38;4.38;;;3.60;;
77040;SDS011;65974;42.664;23.264;2023-04-29T03:40:04;6.28;;;3.30;;
77040;SDS011;65974;42.664;23.264;2023-04-29T03:42:30;5.03;;;3.65;;
77040;SDS011;65974;42.664;23.264;2023-04-29T03:44:56;9.05;;;4.10;;
77040;SDS011;65974;42.664;23.264;2023-04-29T03:47:21;5.20;;;3.97;;
77040;SDS011;65974;42.664;23.264;2023-04-29T03:49:47;12.63;;;5.03;;
77040;SDS011;65974;42.664;23.264;2023-04-29T03:52:13;7.18;;;5.00;;
77040;SDS011;65974;42.664;23.264;2023-04-29T03:54:40;7.18;;;5.15;;
77040;SDS011;65974;42.664;23.264;2023-04-29T03:57:05;8.15;;;4.53;;
77040;SDS011;65974;42.664;23.264;2023-04-29T03:59:31;11.32;;;6.00;;
77040;SDS011;65974;42.664;23.264;2023-04-29T04:01:56;7.57;;;5.32;;
77040;SDS011;65974;42.664;23.264;2023-04-29T04:04:22;8.50;;;6.88;;
77040;SDS011;65974;42.664;23.264;2023-04-29T04:06:48;5.05;;;3.95;;
77040;SDS011;65974;42.664;23.264;2023-04-29T04:09:16;12.45;;;6.45;;
77040;SDS011;65974;42.664;23.264;2023-04-29T04:11:42;11.40;;;7.82;;
77040;SDS011;65974;42.664;23.264;2023-04-29T04:14:08;5.65;;;3.88;;
77040;SDS011;65974;42.664;23.264;2023-04-29T04:16:33;4.43;;;4.03;;
77040;SDS011;65974;42.664;23.264;2023-04-29T04:18:59;18.95;;;4.75;;
77040;SDS011;65974;42.664;23.264;2023-04-29T04:21:24;10.25;;;8.20;;
77040;SDS011;65974;42.664;23.264;2023-04-29T04:23:51;12.70;;;8.40;;
77040;SDS011;65974;42.664;23.264;2023-04-29T04:26:16;14.98;;;7.53;;
77040;SDS011;65974;42.664;23.264;2023-04-29T04:28:42;34.83;;;8.55;;
77040;SDS011;65974;42.664;23.264;2023-04-29T04:31:07;5.25;;;4.75;;
77040;SDS011;65974;42.664;23.264;2023-04-29T04:33:34;5.50;;;4.93;;
77040;SDS011;65974;42.664;23.264;2023-04-29T04:36:00;7.63;;;4.25;;
77040;SDS011;65974;42.664;23.264;2023-04-29T04:38:25;8.00;;;5.88;;
77040;SDS011;65974;42.664;23.264;2023-04-29T04:40:52;9.10;;;7.03;;
77040;SDS011;65974;42.664;23.264;2023-04-29T04:43:17;6.22;;;4.95;;
77040;SDS011;65974;42.664;23.264;2023-04-29T04:45:43;8.25;;;6.65;;
77040;SDS011;65974;42.664;23.264;2023-04-29T04:48:08;7.38;;;5.22;;
77040;SDS011;65974;42.664;23.264;2023-04-29T04:50:34;5.38;;;4.53;;
77040;SDS011;65974;42.664;23.264;2023-04-29T04:52:59;12.90;;;8.27;;
77040;SDS011;65974;42.664;23.264;2023-04-29T04:55:24;14.10;;;8.95;;
77040;SDS011;65974;42.664;23.264;2023-04-29T04:57:50;10.80;;;9.27;;
77040;SDS011;65974;42.664;23.264;2023-04-29T05:00:15;7.25;;;5.57;;
77040;SDS011;65974;42.664;23.264;2023-04-29T05:02:41;7.43;;;5.47;;
77040;SDS011;65974;42.664;23.264;2023-04-29T05:05:07;10.05;;;8.15;;
77040;SDS011;65974;42.664;23.264;2023-04-29T05:07:33;5.75;;;4.38;;
77040;SDS011;65974;42.664;23.264;2023-04-29T05:10:01;5.60;;;3.35;;
77040;SDS011;65974;42.664;23.264;2023-04-29T05:12:27;7.45;;;3.88;;
77040;SDS011;65974;42.664;23.264;2023-04-29T05:14:55;8.05;;;5.70;;
77040;SDS011;65974;42.664;23.264;2023-04-29T05:17:21;13.75;;;7.90;;
77040;SDS011;65974;42.664;23.264;2023-04-29T05:19:46;11.75;;;8.25;;
77040;SDS011;65974;42.664;23.264;2023-04-29T05:22:12;10.70;;;8.18;;
77040;SDS011;65974;42.664;23.264;2023-04-29T05:24:37;8.93;;;7.60;;
77040;SDS011;65974;42.664;23.264;2023-04-29T05:27:02;6.03;;;5.43;;
77040;SDS011;65974;42.664;23.264;2023-04-29T05:29:29;6.47;;;5.30;;
77040;SDS011;65974;42.664;23.264;2023-04-29T05:31:55;12.23;;;8.45;;
77040;SDS011;65974;42.664;23.264;2023-04-29T05:34:20;6.40;;;4.07;;
77040;SDS011;65974;42.664;23.264;2023-04-29T05:36:45;5.80;;;4.72;;
77040;SDS011;65974;42.664;23.264;2023-04-29T05:39:11;8.10;;;5.30;;
77040;SDS011;65974;42.664;23.264;2023-04-29T05:41:36;11.15;;;8.55;;
77040;SDS011;65974;42.664;23.264;2023-04-29T05:44:02;13.80;;;8.02;;
77040;SDS011;65974;42.664;23.264;2023-04-29T05:46:27;9.90;;;6.30;;
77040;SDS011;65974;42.664;23.264;2023-04-29T05:48:53;8.38;;;6.78;;
77040;SDS011;65974;42.664;23.264;2023-04-29T05:51:18;6.38;;;4.93;;
77040;SDS011;65974;42.664;23.264;2023-04-29T05:53:44;6.15;;;5.57;;
77040;SDS011;65974;42.664;23.264;2023-04-29T05:56:09;8.27;;;5.57;;
77040;SDS011;65974;42.664;23.264;2023-04-29T05:58:35;12.43;;;8.82;;
77040;SDS011;65974;42.664;23.264;2023-04-29T06:01:00;14.07;;;7.75;;
77040;SDS011;65974;42.664;23.264;2023-04-29T06:03:26;12.93;;;7.95;;
77040;SDS011;65974;42.664;23.264;2023-04-29T06:05:52;9.23;;;5.32;;
77040;SDS011;65974;42.664;23.264;2023-04-29T06:08:18;11.95;;;6.70;;
77040;SDS011;65974;42.664;23.264;2023-04-29T06:10:43;13.40;;;7.95;;
77040;SDS011;65974;42.664;23.264;2023-04-29T06:13:10;10.45;;;8.73;;
77040;SDS011;65974;42.664;23.264;2023-04-29T06:15:35;14.50;;;7.97;;
77040;SDS011;65974;42.664;23.264;2023-04-29T06:18:01;13.13;;;8.02;;
77040;SDS011;65974;42.664;23.264;2023-04-29T06:20:26;8.63;;;6.53;;
77040;SDS011;65974;42.664;23.264;2023-04-29T06:22:52;12.60;;;8.73;;
77040;SDS011;65974;42.664;23.264;2023-04-29T06:25:17;11.60;;;8.40;;
77040;SDS011;65974;42.664;23.264;2023-04-29T06:27:42;14.05;;;7.50;;
77040;SDS011;65974;42.664;23.264;2023-04-29T06:30:08;18.98;;;11.57;;
77040;SDS011;65974;42.664;23.264;2023-04-29T06:32:34;14.32;;;6.80;;
77040;SDS011;65974;42.664;23.264;2023-04-29T06:34:59;13.23;;;9.70;;
77040;SDS011;65974;42.664;23.264;2023-04-29T06:37:25;12.80;;;8.48;;
77040;SDS011;65974;42.664;23.264;2023-04-29T06:39:50;15.88;;;9.50;;
77040;SDS011;65974;42.664;23.264;2023-04-29T06:42:16;17.63;;;9.77;;
77040;SDS011;65974;42.664;23.264;2023-04-29T06:44:42;9.30;;;7.78;;
77040;SDS011;65974;42.664;23.264;2023-04-29T06:47:07;17.40;;;9.45;;
77040;SDS011;65974;42.664;23.264;2023-04-29T06:49:33;10.70;;;8.27;;
77040;SDS011;65974;42.664;23.264;2023-04-29T06:51:59;15.30;;;9.35;;
77040;SDS011;65974;42.664;23.264;2023-04-29T06:54:26;15.43;;;10.43;;
77040;SDS011;65974;42.664;23.264;2023-04-29T06:56:52;20.10;;;10.68;;
77040;SDS011;65974;42.664;23.264;2023-04-29T06:59:18;12.90;;;9.48;;
77040;SDS011;65974;42.664;23.264;2023-04-29T07:01:43;11.27;;;8.60;;
77040;SDS011;65974;42.664;23.264;2023-04-29T07:04:09;17.52;;;10.15;;
77040;SDS011;65974;42.664;23.264;2023-04-29T07:06:34;12.35;;;8.00;;
77040;SDS011;65974;42.664;23.264;2023-04-29T07:09:00;17.83;;;10.43;;
77040;SDS011;65974;42.664;23.264;2023-04-29T07:11:26;19.77;;;10.52;;
77040;SDS011;65974;42.664;23.264;2023-04-29T07:13:52;24.15;;;9.88;;
77040;SDS011;65974;42.664;23.264;2023-04-29T07:16:18;11.13;;;6.45;;
77040;SDS011;65974;42.664;23.264;2023-04-29T07:18:50;14.98;;;9.23;;
77040;SDS011;65974;42.664;23.264;2023-04-29T07:21:16;13.32;;;10.23;;
77040;SDS011;65974;42.664;23.264;2023-04-29T07:23:41;14.80;;;10.45;;
77040;SDS011;65974;42.664;23.264;2023-04-29T07:26:13;15.05;;;10.27;;
77040;SDS011;65974;42.664;23.264;2023-04-29T07:28:40;12.73;;;9.25;;
77040;SDS011;65974;42.664;23.264;2023-04-29T07:31:06;14.60;;;8.80;;
77040;SDS011;65974;42.664;23.264;2023-04-29T07:33:32;10.55;;;7.75;;
77040;SDS011;65974;42.664;23.264;2023-04-29T07:35:58;12.60;;;7.00;;
77040;SDS011;65974;42.664;23.264;2023-04-29T07:38:23;11.70;;;8.32;;
77040;SDS011;65974;42.664;23.264;2023-04-29T07:40:48;10.00;;;7.80;;
77040;SDS011;65974;42.664;23.264;2023-04-29T07:43:14;10.27;;;6.45;;
77040;SDS011;65974;42.664;23.264;2023-04-29T07:45:41;11.75;;;7.72;;
77040;SDS011;65974;42.664;23.264;2023-04-29T07:48:06;9.38;;;6.72;;
77040;SDS011;65974;42.664;23.264;2023-04-29T07:50:35;10.55;;;7.38;;
77040;SDS011;65974;42.664;23.264;2023-04-29T07:53:03;12.77;;;8.55;;
77040;SDS011;65974;42.664;23.264;2023-04-29T07:55:29;10.43;;;7.65;;
77040;SDS011;65974;42.664;23.264;2023-04-29T07:57:59;9.68;;;7.60;;
77040;SDS011;65974;42.664;23.264;2023-04-29T08:00:24;9.00;;;7.57;;
77040;SDS011;65974;42.664;23.264;2023-04-29T08:02:52;9.82;;;7.47;;
77040;SDS011;65974;42.664;23.264;2023-04-29T08:05:20;14.05;;;7.55;;
77040;SDS011;65974;42.664;23.264;2023-04-29T08:07:47;9.93;;;7.25;;
77040;SDS011;65974;42.664;23.264;2023-04-29T08:10:13;16.00;;;7.18;;
77040;SDS011;65974;42.664;23.264;2023-04-29T08:12:39;8.77;;;6.88;;
77040;SDS011;65974;42.664;23.264;2023-04-29T08:15:05;13.63;;;9.07;;
77040;SDS011;65974;42.664;23.264;2023-04-29T08:17:31;11.02;;;8.48;;
77040;SDS011;65974;42.664;23.264;2023-04-29T08:19:57;13.13;;;8.18;;
77040;SDS011;65974;42.664;23.264;2023-04-29T08:22:22;9.48;;;7.68;;
77040;SDS011;65974;42.664;23.264;2023-04-29T08:24:47;13.90;;;7.40;;
77040;SDS011;65974;42.664;23.264;2023-04-29T08:27:13;11.25;;;8.02;;
77040;SDS011;65974;42.664;23.264;2023-04-29T08:29:42;18.05;;;8.55;;
77040;SDS011;65974;42.664;23.264;2023-04-29T08:32:07;10.10;;;6.95;;
77040;SDS011;65974;42.664;23.264;2023-04-29T08:34:33;8.77;;;6.15;;
77040;SDS011;65974;42.664;23.264;2023-04-29T08:37:00;9.95;;;8.10;;
77040;SDS011;65974;42.664;23.264;2023-04-29T08:39:29;10.43;;;7.25;;
77040;SDS011;65974;42.664;23.264;2023-04-29T08:41:55;10.43;;;7.85;;
77040;SDS011;65974;42.664;23.264;2023-04-29T08:44:21;10.38;;;8.35;;
77040;SDS011;65974;42.664;23.264;2023-04-29T08:46:49;12.23;;;8.63;;
77040;SDS011;65974;42.664;23.264;2023-04-29T08:49:15;12.25;;;7.75;;
77040;SDS011;65974;42.664;23.264;2023-04-29T08:51:41;10.07;;;8.05;;
77040;SDS011;65974;42.664;23.264;2023-04-29T08:54:06;10.10;;;8.05;;
77040;SDS011;65974;42.664;23.264;2023-04-29T08:56:32;11.02;;;7.68;;
77040;SDS011;65974;42.664;23.264;2023-04-29T08:58:58;9.48;;;7.05;;
77040;SDS011;65974;42.664;23.264;2023-04-29T09:03:59;12.70;;;7.38;;
77040;SDS011;65974;42.664;23.264;2023-04-29T09:06:27;15.27;;;7.38;;
77040;SDS011;65974;42.664;23.264;2023-04-29T09:08:54;10.65;;;6.38;;
77040;SDS011;65974;42.664;23.264;2023-04-29T09:13:58;8.82;;;6.13;;
77040;SDS011;65974;42.664;23.264;2023-04-29T09:16:29;9.80;;;7.28;;
77040;SDS011;65974;42.664;23.264;2023-04-29T09:18:54;10.02;;;9.02;;
77040;SDS011;65974;42.664;23.264;2023-04-29T09:21:24;11.60;;;7.38;;
77040;SDS011;65974;42.664;23.264;2023-04-29T09:23:57;19.08;;;8.10;;
77040;SDS011;65974;42.664;23.264;2023-04-29T09:26:24;14.57;;;7.57;;
77040;SDS011;65974;42.664;23.264;2023-04-29T09:29:06;13.45;;;7.57;;
77040;SDS011;65974;42.664;23.264;2023-04-29T09:31:42;15.27;;;8.02;;
77040;SDS011;65974;42.664;23.264;2023-04-29T09:34:09;16.52;;;8.73;;
77040;SDS011;65974;42.664;23.264;2023-04-29T09:41:41;13.32;;;8.20;;
77040;SDS011;65974;42.664;23.264;2023-04-29T09:44:07;12.95;;;7.63;;
77040;SDS011;65974;42.664;23.264;2023-04-29T09:46:34;10.55;;;8.20;;
77040;SDS011;65974;42.664;23.264;2023-04-29T09:49:01;13.75;;;7.70;;
77040;SDS011;65974;42.664;23.264;2023-04-29T09:51:28;9.65;;;7.32;;
77040;SDS011;65974;42.664;23.264;2023-04-29T09:53:56;10.50;;;9.00;;
77040;SDS011;65974;42.664;23.264;2023-04-29T09:56:23;12.65;;;7.65;;
77040;SDS011;65974;42.664;23.264;2023-04-29T09:58:53;10.95;;;7.25;;
77040;SDS011;65974;42.664;23.264;2023-04-29T10:01:19;12.30;;;8.35;;
77040;SDS011;65974;42.664;23.264;2023-04-29T10:03:48;13.20;;;6.20;;
77040;SDS011;65974;42.664;23.264;2023-04-29T10:06:15;10.35;;;7.82;;
77040;SDS011;65974;42.664;23.264;2023-04-29T10:08:42;9.48;;;7.45;;
77040;SDS011;65974;42.664;23.264;2023-04-29T10:11:08;11.27;;;6.88;;
77040;SDS011;65974;42.664;23.264;2023-04-29T10:13:35;9.05;;;6.32;;
77040;SDS011;65974;42.664;23.264;2023-04-29T10:18:55;13.82;;;7.47;;
77040;SDS011;65974;42.664;23.264;2023-04-29T10:21:28;11.00;;;6.90;;
77040;SDS011;65974;42.664;23.264;2023-04-29T10:23:57;9.23;;;6.80;;
77040;SDS011;65974;42.664;23.264;2023-04-29T10:26:25;8.90;;;6.47;;
77040;SDS011;65974;42.664;23.264;2023-04-29T10:28:54;10.95;;;5.63;;
77040;SDS011;65974;42.664;23.264;2023-04-29T10:33:46;9.07;;;5.00;;
77040;SDS011;65974;42.664;23.264;2023-04-29T10:36:13;9.07;;;5.88;;
77040;SDS011;65974;42.664;23.264;2023-04-29T10:38:44;10.98;;;5.07;;
77040;SDS011;65974;42.664;23.264;2023-04-29T10:41:21;12.40;;;6.35;;
77040;SDS011;65974;42.664;23.264;2023-04-29T10:43:50;11.65;;;6.70;;
77040;SDS011;65974;42.664;23.264;2023-04-29T10:46:20;8.30;;;5.43;;
77040;SDS011;65974;42.664;23.264;2023-04-29T10:48:54;8.38;;;5.55;;
77040;SDS011;65974;42.664;23.264;2023-04-29T10:51:28;8.95;;;5.20;;
77040;SDS011;65974;42.664;23.264;2023-04-29T10:56:55;5.75;;;4.30;;
77040;SDS011;65974;42.664;23.264;2023-04-29T11:01:57;10.55;;;5.97;;
77040;SDS011;65974;42.664;23.264;2023-04-29T11:04:23;9.57;;;5.55;;
77040;SDS011;65974;42.664;23.264;2023-04-29T11:06:55;10.18;;;6.88;;
77040;SDS011;65974;42.664;23.264;2023-04-29T11:09:29;8.25;;;4.18;;
77040;SDS011;65974;42.664;23.264;2023-04-29T11:17:09;5.93;;;3.45;;
77040;SDS011;65974;42.664;23.264;2023-04-29T11:19:41;8.65;;;4.18;;
77040;SDS011;65974;42.664;23.264;2023-04-29T11:22:10;9.38;;;3.92;;
77040;SDS011;65974;42.664;23.264;2023-04-29T11:24:50;4.95;;;3.35;;
77040;SDS011;65974;42.664;23.264;2023-04-29T11:27:16;4.32;;;3.20;;
77040;SDS011;65974;42.664;23.264;2023-04-29T11:29:44;5.68;;;3.25;;
77040;SDS011;65974;42.664;23.264;2023-04-29T11:32:14;4.50;;;3.05;;
77040;SDS011;65974;42.664;23.264;2023-04-29T11:34:39;7.85;;;3.47;;
77040;SDS011;65974;42.664;23.264;2023-04-29T11:37:05;5.18;;;3.15;;
77040;SDS011;65974;42.664;23.264;2023-04-29T11:39:33;4.85;;;2.47;;
77040;SDS011;65974;42.664;23.264;2023-04-29T11:42:03;4.22;;;2.25;;
77040;SDS011;65974;42.664;23.264;2023-04-29T11:44:32;4.30;;;2.50;;
77040;SDS011;65974;42.664;23.264;2023-04-29T11:47:04;7.90;;;3.10;;
77040;SDS011;65974;42.664;23.264;2023-04-29T11:49:31;8.15;;;5.43;;
77040;SDS011;65974;42.664;23.264;2023-04-29T11:52:01;11.40;;;2.38;;
77040;SDS011;65974;42.664;23.264;2023-04-29T11:54:30;4.75;;;2.83;;
77040;SDS011;65974;42.664;23.264;2023-04-29T11:56:58;3.05;;;2.70;;
77040;SDS011;65974;42.664;23.264;2023-04-29T11:59:28;5.63;;;3.38;;
77040;SDS011;65974;42.664;23.264;2023-04-29T12:01:56;4.68;;;2.95;;
77040;SDS011;65974;42.664;23.264;2023-04-29T12:04:24;3.65;;;2.67;;
77040;SDS011;65974;42.664;23.264;2023-04-29T12:06:52;4.95;;;2.88;;
77040;SDS011;65974;42.664;23.264;2023-04-29T12:09:21;4.40;;;3.92;;
77040;SDS011;65974;42.664;23.264;2023-04-29T12:11:47;4.90;;;2.22;;
77040;SDS011;65974;42.664;23.264;2023-04-29T12:14:14;3.13;;;2.25;;
77040;SDS011;65974;42.664;23.264;2023-04-29T12:16:40;4.88;;;2.63;;
77040;SDS011;65974;42.664;23.264;2023-04-29T12:19:06;4.70;;;2.40;;
77040;SDS011;65974;42.664;23.264;2023-04-29T12:24:01;4.63;;;2.67;;
77040;SDS011;65974;42.664;23.264;2023-04-29T12:26:27;4.50;;;2.88;;
77040;SDS011;65974;42.664;23.264;2023-04-29T12:28:55;5.15;;;3.35;;
77040;SDS011;65974;42.664;23.264;2023-04-29T12:31:22;4.95;;;3.22;;
77040;SDS011;65974;42.664;23.264;2023-04-29T12:33:48;5.78;;;2.72;;
77040;SDS011;65974;42.664;23.264;2023-04-29T12:36:17;6.60;;;3.40;;
77040;SDS011;65974;42.664;23.264;2023-04-29T12:38:43;5.35;;;2.58;;
77040;SDS011;65974;42.664;23.264;2023-04-29T12:41:09;4.38;;;2.25;;
77040;SDS011;65974;42.664;23.264;2023-04-29T12:43:38;4.07;;;2.30;;
77040;SDS011;65974;42.664;23.264;2023-04-29T12:46:04;3.63;;;2.20;;
77040;SDS011;65974;42.664;23.264;2023-04-29T12:48:32;5.93;;;2.72;;
77040;SDS011;65974;42.664;23.264;2023-04-29T12:50:59;5.22;;;2.90;;
77040;SDS011;65974;42.664;23.264;2023-04-29T12:53:30;7.07;;;3.10;;
77040;SDS011;65974;42.664;23.264;2023-04-29T12:55:56;7.82;;;3.10;;
77040;SDS011;65974;42.664;23.264;2023-04-29T12:58:22;3.33;;;2.60;;
77040;SDS011;65974;42.664;23.264;2023-04-29T13:00:48;3.72;;;2.92;;
77040;SDS011;65974;42.664;23.264;2023-04-29T13:03:14;4.85;;;2.35;;
77040;SDS011;65974;42.664;23.264;2023-04-29T13:05:39;3.58;;;2.45;;
77040;SDS011;65974;42.664;23.264;2023-04-29T13:08:06;4.43;;;2.35;;
77040;SDS011;65974;42.664;23.264;2023-04-29T13:10:33;4.63;;;2.85;;
77040;SDS011;65974;42.664;23.264;2023-04-29T13:13:00;2.55;;;1.98;;
77040;SDS011;65974;42.664;23.264;2023-04-29T13:15:26;6.43;;;2.78;;
77040;SDS011;65974;42.664;23.264;2023-04-29T13:17:52;2.85;;;2.40;;
77040;SDS011;65974;42.664;23.264;2023-04-29T13:20:17;2.67;;;2.05;;
77040;SDS011;65974;42.664;23.264;2023-04-29T13:22:44;3.83;;;2.63;;
77040;SDS011;65974;42.664;23.264;2023-04-29T13:25:10;11.35;;;4.78;;
77040;SDS011;65974;42.664;23.264;2023-04-29T13:27:36;6.82;;;3.42;;
77040;SDS011;65974;42.664;23.264;2023-04-29T13:30:02;6.63;;;3.85;;
77040;SDS011;65974;42.664;23.264;2023-04-29T13:32:29;3.50;;;2.63;;
77040;SDS011;65974;42.664;23.264;2023-04-29T13:34:54;3.10;;;2.33;;
77040;SDS011;65974;42.664;23.264;2023-04-29T13:37:20;3.95;;;2.83;;
77040;SDS011;65974;42.664;23.264;2023-04-29T13:39:46;4.40;;;2.40;;
77040;SDS011;65974;42.664;23.264;2023-04-29T13:42:13;3.90;;;2.42;;
77040;SDS011;65974;42.664;23.264;2023-04-29T13:44:38;4.45;;;2.45;;
77040;SDS011;65974;42.664;23.264;2023-04-29T13:47:08;3.53;;;2.25;;
77040;SDS011;65974;42.664;23.264;2023-04-29T13:49:35;4.13;;;2.15;;
77040;SDS011;65974;42.664;23.264;2023-04-29T13:52:00;4.88;;;2.70;;
77040;SDS011;65974;42.664;23.264;2023-04-29T13:54:26;4.28;;;2.53;;
77040;SDS011;65974;42.664;23.264;2023-04-29T13:56:51;2.97;;;1.80;;
77040;SDS011;65974;42.664;23.264;2023-04-29T13:59:17;3.90;;;2.75;;
77040;SDS011;65974;42.664;23.264;2023-04-29T14:01:42;4.00;;;2.40;;
77040;SDS011;65974;42.664;23.264;2023-04-29T14:04:08;3.17;;;2.53;;
77040;SDS011;65974;42.664;23.264;2023-04-29T14:06:34;4.93;;;2.45;;
77040;SDS011;65974;42.664;23.264;2023-04-29T14:09:00;6.25;;;2.33;;
77040;SDS011;65974;42.664;23.264;2023-04-29T14:11:25;6.38;;;2.85;;
77040;SDS011;65974;42.664;23.264;2023-04-29T14:13:51;4.88;;;2.65;;
77040;SDS011;65974;42.664;23.264;2023-04-29T14:16:16;5.95;;;3.90;;
77040;SDS011;65974;42.664;23.264;2023-04-29T14:18:42;9.02;;;6.50;;
77040;SDS011;65974;42.664;23.264;2023-04-29T14:21:07;11.02;;;8.48;;
77040;SDS011;65974;42.664;23.264;2023-04-29T14:23:33;3.90;;;3.08;;
77040;SDS011;65974;42.664;23.264;2023-04-29T14:25:58;7.28;;;2.90;;
77040;SDS011;65974;42.664;23.264;2023-04-29T14:28:24;3.95;;;2.97;;
77040;SDS011;65974;42.664;23.264;2023-04-29T14:30:49;4.45;;;3.17;;
77040;SDS011;65974;42.664;23.264;2023-04-29T14:33:14;7.72;;;3.67;;
77040;SDS011;65974;42.664;23.264;2023-04-29T14:35:40;4.43;;;2.58;;
77040;SDS011;65974;42.664;23.264;2023-04-29T14:38:06;4.65;;;3.08;;
77040;SDS011;65974;42.664;23.264;2023-04-29T14:40:31;3.75;;;2.72;;
77040;SDS011;65974;42.664;23.264;2023-04-29T14:42:57;8.60;;;3.67;;
77040;SDS011;65974;42.664;23.264;2023-04-29T14:45:22;8.00;;;4.07;;
77040;SDS011;65974;42.664;23.264;2023-04-29T14:47:47;6.10;;;3.40;;
77040;SDS011;65974;42.664;23.264;2023-04-29T14:50:13;3.25;;;2.60;;
77040;SDS011;65974;42.664;23.264;2023-04-29T14:52:40;5.97;;;3.35;;
77040;SDS011;65974;42.664;23.264;2023-04-29T14:55:05;6.47;;;3.53;;
77040;SDS011;65974;42.664;23.264;2023-04-29T14:57:33;6.40;;;4.07;;
77040;SDS011;65974;42.664;23.264;2023-04-29T14:59:58;3.63;;;2.33;;
77040;SDS011;65974;42.664;23.264;2023-04-29T15:02:23;5.85;;;3.72;;
77040;SDS011;65974;42.664;23.264;2023-04-29T15:04:50;4.97;;;2.63;;